Time;durP1;ratioP1;P1;durP2;ratioP2;P2;SDS_P1;SDS_P2;PMS_P1;PMS_P2;Temp;Humidity;BMP_temperature;BMP_pressure;BME280_temperature;BME280_humidity;BME280_pressure;Samples;Min_cycle;Max_cycle;Signal;HPM_P1;HPM_P2
2023/09/19 00:00:47;;;;;;;0.60;0.60;;;23.00;95.10;;;;;;4959676;28;20203;-72
2023/09/19 00:03:12;;;;;;;1.95;1.00;;;23.00;95.00;;;;;;4975587;28;20238;-71
2023/09/19 00:05:39;;;;;;;0.65;0.65;;;23.00;95.00;;;;;;4945952;28;20189;-71
2023/09/19 00:08:05;;;;;;;0.98;0.80;;;23.00;95.00;;;;;;4941523;28;20206;-72
2023/09/19 00:10:34;;;;;;;1.08;0.85;;;23.00;95.10;;;;;;4963451;28;20182;-71
2023/09/19 00:13:06;;;;;;;1.42;0.70;;;23.00;95.10;;;;;;4965815;28;20181;-71
2023/09/19 00:15:39;;;;;;;1.00;1.00;;;23.00;95.10;;;;;;4964241;28;20197;-72
2023/09/19 00:18:08;;;;;;;0.57;0.57;;;23.00;95.10;;;;;;4966943;28;20221;-71
2023/09/19 00:20:38;;;;;;;1.15;1.05;;;23.00;95.10;;;;;;4966456;28;20272;-71
2023/09/19 00:23:05;;;;;;;0.90;0.90;;;23.00;95.10;;;;;;4953783;28;20313;-71
2023/09/19 00:25:32;;;;;;;0.75;0.75;;;23.00;95.10;;;;;;4980335;28;20190;-70
2023/09/19 00:27:58;;;;;;;1.13;0.82;;;23.00;95.10;;;;;;4970276;28;20235;-71
2023/09/19 00:30:24;;;;;;;0.70;0.70;;;23.00;95.00;;;;;;4961943;28;20241;-71
2023/09/19 00:32:54;;;;;;;0.70;0.70;;;23.00;95.10;;;;;;4938173;29;20194;-71
2023/09/19 00:35:24;;;;;;;0.77;0.77;;;23.00;95.10;;;;;;4985711;28;20211;-71
2023/09/19 00:37:51;;;;;;;0.88;0.70;;;23.00;95.10;;;;;;4948435;28;20695;-71
2023/09/19 00:40:17;;;;;;;0.73;0.73;;;23.00;95.10;;;;;;4950518;28;20181;-71
2023/09/19 00:42:45;;;;;;;1.23;0.70;;;23.00;95.10;;;;;;4963220;28;20213;-71
2023/09/19 00:45:13;;;;;;;0.80;0.80;;;23.00;95.00;;;;;;4949608;28;20182;-71
2023/09/19 00:47:50;;;;;;;0.60;0.60;;;23.00;95.00;;;;;;4949256;28;20600;-71
2023/09/19 00:50:25;;;;;;;0.77;0.77;;;23.00;95.00;;;;;;4944639;28;20252;-71
2023/09/19 00:52:55;;;;;;;0.65;0.65;;;23.00;95.00;;;;;;4948010;28;20187;-71
2023/09/19 00:55:23;;;;;;;0.90;0.80;;;23.00;95.00;;;;;;4948632;28;20220;-71
2023/09/19 00:57:49;;;;;;;1.27;0.80;;;23.00;95.00;;;;;;4947776;28;20279;-71
2023/09/19 01:00:16;;;;;;;0.93;0.75;;;22.90;95.00;;;;;;4987842;28;20209;-71
2023/09/19 01:02:43;;;;;;;0.77;0.77;;;23.00;95.00;;;;;;4948772;28;20222;-72
2023/09/19 01:05:10;;;;;;;0.75;0.75;;;23.00;95.00;;;;;;4953097;28;20193;-71
2023/09/19 01:07:40;;;;;;;1.08;0.98;;;23.00;95.00;;;;;;4953144;28;20220;-71
2023/09/19 01:10:12;;;;;;;1.08;0.60;;;23.00;95.00;;;;;;4960518;28;20213;-71
2023/09/19 01:13:12;;;;;;;0.80;0.80;;;22.90;95.00;;;;;;4961874;28;20284;-71
2023/09/19 01:15:52;;;;;;;0.68;0.68;;;23.00;95.00;;;;;;4951966;28;20189;-71
2023/09/19 01:18:59;;;;;;;0.80;0.80;;;22.90;95.00;;;;;;4949563;28;20306;-71
2023/09/19 01:21:55;;;;;;;1.00;0.90;;;22.90;95.00;;;;;;4926667;28;20252;-71
2023/09/19 01:25:00;;;;;;;0.90;0.80;;;23.00;95.00;;;;;;4950793;28;20311;-73
2023/09/19 01:28:13;;;;;;;0.77;0.70;;;23.00;95.00;;;;;;4940418;28;20352;-71
2023/09/19 01:30:44;;;;;;;0.65;0.65;;;23.00;95.00;;;;;;4980468;28;20664;-71
2023/09/19 01:33:10;;;;;;;0.80;0.80;;;22.90;95.00;;;;;;4965792;28;20192;-71
2023/09/19 01:35:39;;;;;;;0.70;0.70;;;23.00;95.00;;;;;;4953350;28;20691;-71
2023/09/19 01:38:09;;;;;;;0.88;0.88;;;23.00;95.00;;;;;;4955629;28;20251;-71
2023/09/19 01:40:45;;;;;;;0.60;0.60;;;23.00;95.00;;;;;;4948360;28;20209;-71
2023/09/19 01:43:23;;;;;;;0.63;0.63;;;23.00;95.00;;;;;;4949242;28;20245;-71
2023/09/19 01:46:07;;;;;;;0.63;0.60;;;23.00;95.00;;;;;;4951163;28;20200;-71
2023/09/19 01:48:42;;;;;;;0.80;0.80;;;22.90;95.00;;;;;;4964238;28;20186;-71
2023/09/19 01:51:21;;;;;;;0.65;0.60;;;22.90;95.00;;;;;;4969453;28;20185;-71
2023/09/19 01:54:02;;;;;;;1.10;0.70;;;22.90;95.00;;;;;;4947438;28;20572;-71
2023/09/19 01:56:40;;;;;;;0.70;0.70;;;22.90;95.00;;;;;;4976858;28;20219;-71
2023/09/19 01:59:17;;;;;;;0.60;0.60;;;23.00;95.00;;;;;;4949324;28;20188;-71
2023/09/19 02:01:47;;;;;;;0.60;0.57;;;22.90;94.90;;;;;;4959217;28;20239;-70
2023/09/19 02:04:14;;;;;;;0.63;0.47;;;22.90;94.90;;;;;;4964832;28;20209;-71
2023/09/19 02:06:42;;;;;;;0.80;0.80;;;22.90;94.90;;;;;;4963051;28;20244;-71
2023/09/19 02:09:08;;;;;;;0.73;0.73;;;22.90;95.00;;;;;;4966524;28;20190;-71
2023/09/19 02:11:35;;;;;;;0.60;0.60;;;22.90;94.90;;;;;;4979823;28;20189;-71
2023/09/19 02:14:02;;;;;;;0.75;0.60;;;22.90;94.90;;;;;;4966599;28;20196;-71
2023/09/19 02:16:28;;;;;;;0.90;0.77;;;22.90;94.80;;;;;;4959498;28;20218;-71
2023/09/19 02:18:54;;;;;;;0.70;0.70;;;22.90;94.90;;;;;;4956240;28;20220;-71
2023/09/19 02:21:21;;;;;;;0.65;0.65;;;22.90;94.90;;;;;;4965796;28;20181;-71
2023/09/19 02:23:53;;;;;;;0.73;0.70;;;22.90;94.90;;;;;;4961563;28;20210;-71
2023/09/19 02:26:19;;;;;;;0.70;0.70;;;22.90;94.90;;;;;;4940025;29;20269;-71
2023/09/19 02:28:47;;;;;;;0.60;0.60;;;22.90;94.90;;;;;;4952145;28;20217;-71
2023/09/19 02:31:13;;;;;;;0.90;0.80;;;22.90;94.90;;;;;;4938152;28;20220;-71
2023/09/19 02:33:39;;;;;;;0.80;0.80;;;22.90;94.90;;;;;;4942435;28;20264;-71
2023/09/19 02:36:05;;;;;;;1.20;0.93;;;22.90;94.90;;;;;;4933917;28;20748;-71
2023/09/19 02:38:31;;;;;;;0.70;0.70;;;22.90;94.90;;;;;;4940016;28;20194;-71
2023/09/19 02:40:56;;;;;;;0.50;0.50;;;22.90;94.90;;;;;;4952654;28;20262;-71
2023/09/19 02:43:23;;;;;;;0.70;0.70;;;22.90;94.90;;;;;;4961408;28;20217;-71
2023/09/19 02:45:49;;;;;;;0.85;0.70;;;22.90;94.90;;;;;;4945940;28;20692;-71
2023/09/19 02:48:16;;;;;;;0.70;0.70;;;22.90;94.90;;;;;;4944239;28;20193;-71
2023/09/19 02:50:44;;;;;;;1.27;0.80;;;22.90;94.90;;;;;;4954813;28;20182;-71
2023/09/19 02:53:12;;;;;;;0.60;0.60;;;22.90;94.90;;;;;;4951916;28;20198;-71
2023/09/19 02:55:40;;;;;;;0.80;0.80;;;22.90;94.90;;;;;;4959337;28;20284;-71
2023/09/19 02:58:14;;;;;;;1.05;0.77;;;22.90;94.90;;;;;;4951778;28;20295;-72
2023/09/19 03:00:41;;;;;;;1.00;0.70;;;22.90;94.90;;;;;;4951753;28;20205;-71
2023/09/19 03:03:08;;;;;;;0.70;0.70;;;22.90;94.90;;;;;;4953358;29;20215;-71
2023/09/19 03:05:35;;;;;;;0.70;0.70;;;22.90;94.80;;;;;;4976138;28;20182;-71
2023/09/19 03:08:01;;;;;;;0.90;0.90;;;22.90;94.80;;;;;;4957632;28;20210;-71
2023/09/19 03:10:27;;;;;;;0.60;0.60;;;22.90;94.80;;;;;;4942688;28;20189;-71
2023/09/19 03:12:55;;;;;;;1.17;0.80;;;22.90;94.90;;;;;;4960198;28;20185;-71
2023/09/19 03:15:21;;;;;;;0.80;0.75;;;22.90;94.90;;;;;;4964231;28;20196;-71
2023/09/19 03:17:49;;;;;;;0.63;0.63;;;22.90;94.80;;;;;;4962886;28;20213;-71
2023/09/19 03:20:20;;;;;;;0.80;0.60;;;22.90;94.90;;;;;;4945133;28;20193;-70
2023/09/19 03:22:48;;;;;;;0.60;0.60;;;22.90;94.90;;;;;;4942837;28;20238;-71
2023/09/19 03:25:15;;;;;;;0.95;0.68;;;22.90;94.80;;;;;;4962156;28;20187;-71
2023/09/19 03:27:43;;;;;;;0.70;0.70;;;22.90;94.80;;;;;;4944759;28;20210;-72
2023/09/19 03:30:13;;;;;;;0.85;0.70;;;22.90;94.90;;;;;;4958339;28;20190;-71
2023/09/19 03:32:47;;;;;;;2.08;0.90;;;22.90;94.80;;;;;;4949638;28;20256;-71
2023/09/19 03:35:14;;;;;;;0.70;0.63;;;22.90;94.80;;;;;;4942329;28;20195;-71
2023/09/19 03:37:42;;;;;;;0.70;0.60;;;22.90;94.90;;;;;;4973514;28;20217;-73
2023/09/19 03:40:10;;;;;;;0.52;0.52;;;22.90;94.90;;;;;;4960719;28;20288;-71
2023/09/19 03:42:41;;;;;;;0.95;0.70;;;22.90;94.90;;;;;;4958053;28;20245;-71
2023/09/19 03:45:12;;;;;;;0.57;0.57;;;22.90;94.80;;;;;;4958665;28;20747;-71
2023/09/19 03:47:40;;;;;;;0.70;0.55;;;22.90;94.80;;;;;;4962507;28;20216;-71
2023/09/19 03:50:10;;;;;;;0.70;0.70;;;22.90;94.80;;;;;;4958364;28;20191;-71
2023/09/19 03:52:37;;;;;;;0.60;0.60;;;22.90;94.80;;;;;;4964788;28;20189;-71
2023/09/19 03:55:04;;;;;;;0.60;0.60;;;22.90;94.80;;;;;;4949883;28;20185;-71
2023/09/19 03:57:30;;;;;;;0.60;0.60;;;22.90;94.80;;;;;;4943855;28;20213;-71
2023/09/19 03:59:56;;;;;;;1.00;0.68;;;22.90;94.80;;;;;;4961761;28;20193;-71
2023/09/19 04:02:22;;;;;;;0.70;0.70;;;22.90;94.80;;;;;;4946668;28;20193;-71
2023/09/19 04:04:51;;;;;;;0.60;0.60;;;22.90;94.80;;;;;;4946990;28;20185;-71
2023/09/19 04:07:18;;;;;;;0.60;0.60;;;22.90;94.80;;;;;;4962917;28;20201;-71
2023/09/19 04:09:46;;;;;;;0.60;0.60;;;22.90;94.80;;;;;;4945464;28;20178;-71
2023/09/19 04:12:12;;;;;;;0.77;0.60;;;22.90;94.80;;;;;;4945358;28;20173;-71
2023/09/19 04:14:38;;;;;;;0.82;0.82;;;22.90;94.80;;;;;;4959499;28;20217;-71
2023/09/19 04:17:05;;;;;;;0.70;0.70;;;22.90;94.80;;;;;;4984393;28;20270;-71
2023/09/19 04:19:31;;;;;;;0.98;0.60;;;22.90;94.80;;;;;;4941595;28;20280;-70
2023/09/19 04:21:57;;;;;;;0.70;0.70;;;22.90;94.80;;;;;;4961770;28;20232;-71
2023/09/19 04:24:23;;;;;;;0.50;0.50;;;22.90;94.80;;;;;;4945895;28;20209;-71
2023/09/19 04:26:49;;;;;;;1.15;0.73;;;22.90;94.80;;;;;;4978794;28;20202;-71
2023/09/19 04:29:15;;;;;;;0.77;0.77;;;22.90;94.80;;;;;;4955275;28;20180;-72
2023/09/19 04:31:43;;;;;;;0.52;0.52;;;22.80;94.80;;;;;;4961573;28;20200;-71
2023/09/19 04:34:10;;;;;;;0.70;0.70;;;22.90;94.80;;;;;;4966148;28;20553;-70
2023/09/19 04:36:36;;;;;;;0.93;0.82;;;22.90;94.80;;;;;;4940683;29;20255;-72
2023/09/19 04:39:07;;;;;;;0.70;0.70;;;22.90;94.80;;;;;;4975374;28;20661;-71
2023/09/19 04:41:33;;;;;;;0.60;0.60;;;22.90;94.80;;;;;;4966846;28;20186;-70
2023/09/19 04:44:00;;;;;;;0.60;0.60;;;22.80;94.80;;;;;;4961489;28;20263;-71
2023/09/19 04:46:25;;;;;;;1.02;0.93;;;22.90;94.80;;;;;;4959566;28;20216;-71
2023/09/19 04:48:51;;;;;;;0.85;0.75;;;22.80;94.80;;;;;;4949188;28;20191;-71
2023/09/19 04:51:18;;;;;;;1.05;0.60;;;22.90;94.80;;;;;;4944789;28;20181;-70
2023/09/19 04:53:44;;;;;;;0.57;0.57;;;22.90;94.80;;;;;;4940905;28;20201;-73
2023/09/19 04:56:10;;;;;;;0.70;0.70;;;22.80;94.70;;;;;;4976093;28;20208;-71
2023/09/19 04:58:35;;;;;;;0.70;0.70;;;22.80;94.70;;;;;;4943718;28;20196;-71
2023/09/19 05:01:02;;;;;;;0.77;0.73;;;22.90;94.80;;;;;;4976899;28;20602;-72
2023/09/19 05:03:29;;;;;;;0.60;0.60;;;22.90;94.80;;;;;;4958029;28;20241;-71
2023/09/19 05:05:54;;;;;;;0.90;0.90;;;22.90;94.80;;;;;;4942808;28;20208;-72
2023/09/19 05:08:22;;;;;;;0.65;0.60;;;22.80;94.70;;;;;;4944521;28;20190;-71
2023/09/19 05:10:48;;;;;;;0.85;0.80;;;22.90;94.70;;;;;;4948813;28;20718;-71
2023/09/19 05:13:15;;;;;;;0.85;0.70;;;22.90;94.80;;;;;;4958097;28;20194;-71
2023/09/19 05:15:40;;;;;;;0.93;0.82;;;22.90;94.70;;;;;;4942383;28;20687;-70
2023/09/19 05:18:06;;;;;;;0.80;0.80;;;22.90;94.80;;;;;;4941857;28;20210;-71
2023/09/19 05:20:34;;;;;;;0.68;0.68;;;22.90;94.70;;;;;;4962136;28;20189;-71
2023/09/19 05:23:08;;;;;;;0.82;0.82;;;22.90;94.70;;;;;;4960000;28;20229;-71
2023/09/19 05:25:39;;;;;;;1.67;0.70;;;22.90;94.70;;;;;;4944158;28;20204;-70
2023/09/19 05:28:12;;;;;;;1.00;0.70;;;22.80;94.70;;;;;;4962638;28;20292;-70
2023/09/19 05:30:39;;;;;;;0.68;0.68;;;22.80;94.70;;;;;;4968114;28;20213;-72
2023/09/19 05:33:05;;;;;;;0.60;0.60;;;22.80;94.70;;;;;;4945249;28;20178;-71
2023/09/19 05:35:32;;;;;;;0.80;0.70;;;22.80;94.80;;;;;;4961066;28;20671;-71
2023/09/19 05:37:58;;;;;;;1.17;0.88;;;22.90;94.80;;;;;;4960967;28;20344;-71
2023/09/19 05:40:25;;;;;;;0.90;0.85;;;22.90;94.80;;;;;;4950852;28;20269;-72
2023/09/19 05:42:51;;;;;;;1.00;0.80;;;22.80;94.70;;;;;;4960592;28;20217;-71
2023/09/19 05:45:22;;;;;;;0.80;0.73;;;22.90;94.70;;;;;;4959759;28;20222;-71
2023/09/19 05:47:49;;;;;;;0.93;0.85;;;22.80;94.70;;;;;;4960663;28;20202;-71
2023/09/19 05:50:16;;;;;;;0.98;0.85;;;22.80;94.70;;;;;;4977622;28;20185;-71
2023/09/19 05:52:45;;;;;;;1.08;0.80;;;22.90;94.70;;;;;;4961202;28;20189;-72
2023/09/19 05:55:11;;;;;;;0.65;0.65;;;22.90;94.60;;;;;;4961459;28;20185;-71
2023/09/19 05:57:42;;;;;;;0.98;0.90;;;22.80;94.60;;;;;;4940981;29;20209;-72
2023/09/19 06:00:10;;;;;;;1.00;1.00;;;22.90;94.70;;;;;;4963750;28;20257;-71
2023/09/19 06:02:38;;;;;;;1.10;0.95;;;22.90;94.60;;;;;;4961042;28;20190;-71
2023/09/19 06:05:06;;;;;;;0.90;0.88;;;22.80;94.60;;;;;;4945093;28;20244;-71
2023/09/19 06:07:36;;;;;;;0.95;0.95;;;22.90;94.60;;;;;;4959677;28;20216;-71
2023/09/19 06:10:09;;;;;;;1.42;0.88;;;22.80;94.60;;;;;;4967478;28;20184;-71
2023/09/19 06:12:45;;;;;;;1.00;0.90;;;22.90;94.60;;;;;;4968088;28;20653;-71
2023/09/19 06:15:15;;;;;;;0.68;0.68;;;22.90;94.60;;;;;;4977448;28;20715;-71
2023/09/19 06:17:54;;;;;;;1.00;0.77;;;22.90;94.60;;;;;;4943342;28;20284;-71
2023/09/19 06:20:23;;;;;;;0.70;0.70;;;22.90;94.60;;;;;;4967668;28;20182;-71
2023/09/19 06:22:49;;;;;;;0.75;0.75;;;22.90;94.60;;;;;;4944046;28;20249;-71
2023/09/19 06:25:19;;;;;;;0.68;0.68;;;22.80;94.60;;;;;;4959636;28;20193;-71
2023/09/19 06:27:46;;;;;;;1.25;0.88;;;22.90;94.60;;;;;;4944001;28;20216;-71
2023/09/19 06:30:13;;;;;;;0.77;0.73;;;22.90;94.60;;;;;;4962049;28;20675;-71
2023/09/19 06:32:43;;;;;;;0.90;0.90;;;22.80;94.50;;;;;;4958432;28;20641;-71
2023/09/19 06:35:11;;;;;;;0.73;0.73;;;22.90;94.60;;;;;;4967266;28;20235;-71
2023/09/19 06:37:41;;;;;;;0.80;0.70;;;22.90;94.60;;;;;;4958898;28;20669;-71
2023/09/19 06:40:13;;;;;;;0.68;0.68;;;22.90;94.60;;;;;;4942608;28;20225;-71
2023/09/19 06:42:45;;;;;;;1.00;0.90;;;22.90;94.50;;;;;;4959244;28;20185;-71
2023/09/19 06:45:13;;;;;;;0.68;0.68;;;22.90;94.60;;;;;;4975996;28;20251;-71
2023/09/19 06:47:39;;;;;;;0.90;0.90;;;22.90;94.60;;;;;;4959046;28;20280;-72
2023/09/19 06:50:09;;;;;;;0.70;0.70;;;22.90;94.50;;;;;;4958627;28;20182;-71
2023/09/19 06:52:35;;;;;;;1.35;0.90;;;22.90;94.60;;;;;;4959163;28;20178;-71
2023/09/19 06:55:03;;;;;;;0.85;0.80;;;22.90;94.60;;;;;;4942504;28;20663;-72
2023/09/19 06:57:30;;;;;;;0.95;0.80;;;22.90;94.60;;;;;;4958779;28;20558;-71
2023/09/19 06:59:56;;;;;;;0.98;0.82;;;22.90;94.60;;;;;;4958325;28;20275;-71
2023/09/19 07:02:22;;;;;;;2.33;0.70;;;22.90;94.60;;;;;;4950408;28;20202;-71
2023/09/19 07:04:49;;;;;;;0.60;0.60;;;22.90;94.60;;;;;;4973495;28;20255;-71
2023/09/19 07:07:16;;;;;;;0.98;0.90;;;22.80;94.60;;;;;;4968013;28;20268;-71
2023/09/19 07:09:42;;;;;;;0.50;0.50;;;22.90;94.60;;;;;;4942750;28;20178;-71
2023/09/19 07:12:08;;;;;;;0.80;0.80;;;22.90;94.60;;;;;;4958665;28;20201;-71
2023/09/19 07:14:34;;;;;;;0.90;0.90;;;22.90;94.60;;;;;;4987634;28;20185;-71
2023/09/19 07:17:03;;;;;;;1.05;0.90;;;22.80;94.60;;;;;;4969235;28;20283;-71
2023/09/19 07:19:29;;;;;;;1.10;0.88;;;22.80;94.60;;;;;;4969611;28;20185;-71
2023/09/19 07:21:55;;;;;;;1.27;1.10;;;22.90;94.60;;;;;;4961611;28;20182;-71
2023/09/19 07:24:23;;;;;;;0.70;0.70;;;22.90;94.60;;;;;;4949834;28;20232;-71
2023/09/19 07:26:50;;;;;;;1.25;0.90;;;22.90;94.60;;;;;;4942215;28;20209;-71
2023/09/19 07:29:15;;;;;;;0.90;0.70;;;22.90;94.60;;;;;;4951238;28;20225;-71
2023/09/19 07:31:42;;;;;;;0.82;0.82;;;22.90;94.60;;;;;;4976442;28;20209;-71
2023/09/19 07:34:08;;;;;;;0.63;0.63;;;22.90;94.60;;;;;;4985991;28;20193;-71
2023/09/19 07:36:35;;;;;;;0.73;0.70;;;22.90;94.60;;;;;;4956045;28;20775;-71
2023/09/19 07:39:00;;;;;;;0.95;0.80;;;22.90;94.60;;;;;;4972816;28;20193;-72
2023/09/19 07:41:27;;;;;;;0.75;0.70;;;22.90;94.60;;;;;;4952272;28;20236;-71
2023/09/19 07:43:52;;;;;;;0.70;0.70;;;22.90;94.60;;;;;;4968235;28;20208;-71
2023/09/19 07:46:18;;;;;;;0.65;0.65;;;22.90;94.60;;;;;;4965829;28;20271;-71
2023/09/19 07:48:48;;;;;;;1.17;0.80;;;22.90;94.60;;;;;;4949508;28;20188;-71
2023/09/19 07:51:15;;;;;;;1.67;0.80;;;22.90;94.60;;;;;;4991872;28;20193;-71
2023/09/19 07:53:42;;;;;;;0.75;0.60;;;22.90;94.60;;;;;;4981245;28;20185;-71
2023/09/19 07:56:09;;;;;;;0.73;0.73;;;22.90;94.50;;;;;;4982264;28;20194;-71
2023/09/19 07:58:40;;;;;;;0.82;0.82;;;22.90;94.50;;;;;;4958081;28;20193;-71
2023/09/19 08:01:10;;;;;;;1.42;0.90;;;22.90;94.60;;;;;;4940515;28;20693;-71
2023/09/19 08:03:43;;;;;;;1.58;0.77;;;22.90;94.60;;;;;;4958492;28;20219;-71
2023/09/19 08:06:10;;;;;;;0.80;0.80;;;22.90;94.50;;;;;;4941836;28;20537;-71
2023/09/19 08:08:40;;;;;;;0.73;0.60;;;22.90;94.60;;;;;;4961668;28;20184;-71
2023/09/19 08:11:15;;;;;;;0.65;0.65;;;22.90;94.50;;;;;;4949411;28;20191;-71
2023/09/19 08:13:45;;;;;;;1.02;0.80;;;22.90;94.50;;;;;;4957708;28;20196;-71
2023/09/19 08:16:11;;;;;;;0.80;0.80;;;22.90;94.50;;;;;;4955543;28;20228;-71
2023/09/19 08:18:39;;;;;;;0.82;0.80;;;22.90;94.60;;;;;;4942111;28;20197;-71
2023/09/19 08:21:10;;;;;;;0.70;0.70;;;22.90;94.50;;;;;;4957408;28;20193;-71
2023/09/19 08:23:38;;;;;;;0.80;0.75;;;22.90;94.50;;;;;;4957421;28;20213;-71
2023/09/19 08:26:07;;;;;;;0.80;0.80;;;22.90;94.50;;;;;;4957150;28;20185;-72
2023/09/19 08:28:37;;;;;;;0.70;0.70;;;22.90;94.40;;;;;;4971994;28;20190;-71
2023/09/19 08:31:08;;;;;;;0.70;0.70;;;22.90;94.40;;;;;;4964959;28;20213;-71
2023/09/19 08:33:38;;;;;;;0.73;0.73;;;22.90;94.40;;;;;;4961029;28;20185;-71
2023/09/19 08:36:06;;;;;;;0.73;0.73;;;22.90;94.40;;;;;;4960024;28;20186;-71
2023/09/19 08:38:34;;;;;;;0.70;0.70;;;22.90;94.40;;;;;;4967272;28;20208;-71
2023/09/19 08:41:01;;;;;;;0.70;0.63;;;23.00;94.40;;;;;;4967316;28;20672;-71
2023/09/19 08:43:27;;;;;;;0.80;0.57;;;22.90;94.30;;;;;;4960426;28;20224;-71
2023/09/19 08:46:19;;;;;;;1.83;0.70;;;22.90;94.40;;;;;;4985453;28;20177;-71
2023/09/19 08:49:05;;;;;;;0.80;0.80;;;22.90;94.20;;;;;;4963796;28;20185;-71
2023/09/19 08:51:45;;;;;;;0.50;0.50;;;23.00;94.30;;;;;;4963298;28;20194;-71
2023/09/19 08:54:32;;;;;;;0.57;0.50;;;22.90;94.30;;;;;;4957169;28;20200;-71
2023/09/19 08:57:08;;;;;;;0.70;0.70;;;22.90;94.30;;;;;;4949018;28;20292;-71
2023/09/19 08:59:37;;;;;;;0.60;0.60;;;23.00;94.30;;;;;;4966872;28;20240;-71
2023/09/19 09:02:03;;;;;;;0.80;0.80;;;23.00;94.30;;;;;;4953305;28;20193;-71
2023/09/19 09:04:30;;;;;;;0.75;0.75;;;23.00;94.20;;;;;;4960626;28;20217;-71
2023/09/19 09:06:58;;;;;;;0.80;0.80;;;22.90;94.10;;;;;;4950641;28;20197;-71
2023/09/19 09:09:24;;;;;;;0.80;0.68;;;22.90;94.00;;;;;;4952216;28;20189;-71
2023/09/19 09:11:53;;;;;;;1.15;0.65;;;23.00;94.10;;;;;;4955753;28;20186;-71
2023/09/19 09:14:21;;;;;;;1.67;0.90;;;22.90;94.00;;;;;;4937838;28;20203;-71
2023/09/19 09:16:48;;;;;;;0.70;0.70;;;23.00;94.10;;;;;;4957574;28;20205;-71
2023/09/19 09:19:20;;;;;;;0.60;0.60;;;23.00;94.10;;;;;;4950278;28;20204;-71
2023/09/19 09:21:47;;;;;;;0.77;0.77;;;22.90;94.00;;;;;;4949076;28;20205;-71
2023/09/19 09:24:58;;;;;;;0.80;0.80;;;23.00;94.10;;;;;;4950428;28;20219;-71
2023/09/19 09:27:24;;;;;;;0.90;0.90;;;23.00;94.10;;;;;;4960366;28;20257;-72
2023/09/19 09:29:54;;;;;;;0.70;0.70;;;23.00;93.90;;;;;;4976096;28;20239;-71
2023/09/19 09:32:26;;;;;;;1.83;0.93;;;23.00;93.90;;;;;;4987027;28;20197;-72
2023/09/19 09:34:59;;;;;;;1.33;0.80;;;23.00;93.90;;;;;;4995014;28;20200;-71
2023/09/19 09:37:30;;;;;;;0.98;0.70;;;23.00;93.80;;;;;;4956369;28;20217;-71
2023/09/19 09:40:18;;;;;;;0.77;0.77;;;23.10;93.90;;;;;;4984083;28;20186;-71
2023/09/19 09:42:52;;;;;;;0.60;0.60;;;23.00;93.90;;;;;;4959867;28;20185;-71
2023/09/19 09:48:14;;;;;;;0.70;0.70;;;23.00;93.70;;;;;;4965164;28;20213;-72
2023/09/19 09:51:01;;;;;;;0.80;0.80;;;23.00;93.80;;;;;;4961817;28;20182;-72
2023/09/19 09:53:32;;;;;;;0.70;0.70;;;23.00;93.60;;;;;;4965272;28;20198;-71
2023/09/19 09:56:11;;;;;;;0.65;0.65;;;23.00;93.70;;;;;;4964094;28;20181;-73
2023/09/19 09:58:52;;;;;;;1.23;0.80;;;23.00;93.80;;;;;;4968909;28;20196;-71
2023/09/19 10:01:18;;;;;;;0.80;0.70;;;23.00;93.70;;;;;;4959808;28;20201;-71
2023/09/19 10:03:47;;;;;;;0.75;0.75;;;23.00;93.70;;;;;;4963221;28;20213;-72
2023/09/19 10:09:11;;;;;;;0.80;0.80;;;23.00;93.40;;;;;;4976531;28;20605;-71
2023/09/19 10:12:08;;;;;;;0.90;0.80;;;23.10;93.50;;;;;;4959233;28;20217;-71
2023/09/19 10:14:38;;;;;;;0.85;0.85;;;23.10;93.30;;;;;;4958227;28;20213;-71
2023/09/19 10:17:06;;;;;;;1.00;0.80;;;23.10;93.50;;;;;;4959058;28;20225;-71
2023/09/19 10:19:50;;;;;;;0.80;0.80;;;23.00;93.30;;;;;;4954175;28;20186;-71
2023/09/19 10:22:21;;;;;;;0.68;0.68;;;23.00;93.10;;;;;;4965240;28;20675;-71
2023/09/19 10:24:53;;;;;;;1.15;0.90;;;23.10;93.40;;;;;;4941176;29;20294;-73
2023/09/19 10:27:23;;;;;;;0.68;0.65;;;23.00;93.40;;;;;;4943555;28;20276;-71
2023/09/19 10:29:56;;;;;;;0.75;0.70;;;23.00;93.50;;;;;;4954491;28;20190;-71
2023/09/19 10:32:24;;;;;;;1.00;0.90;;;23.10;93.40;;;;;;4949321;28;20196;-72
2023/09/19 10:34:54;;;;;;;0.77;0.77;;;23.10;93.30;;;;;;4959659;28;20185;-71
2023/09/19 10:37:25;;;;;;;1.02;0.73;;;23.10;93.00;;;;;;4943374;28;20221;-72
2023/09/19 10:39:55;;;;;;;0.70;0.70;;;23.10;93.10;;;;;;4975849;28;20199;-72
2023/09/19 10:42:28;;;;;;;1.10;0.82;;;23.00;93.10;;;;;;4959181;28;20190;-72
2023/09/19 10:44:59;;;;;;;1.02;0.88;;;23.10;93.00;;;;;;4938589;28;20218;-72
2023/09/19 10:47:26;;;;;;;0.80;0.80;;;23.10;92.90;;;;;;4956104;28;20275;-72
2023/09/19 10:49:53;;;;;;;0.80;0.80;;;23.10;93.00;;;;;;4959470;28;20185;-72
2023/09/19 10:52:26;;;;;;;1.10;1.00;;;23.10;93.00;;;;;;4959039;28;20257;-71
2023/09/19 10:54:57;;;;;;;1.30;1.15;;;23.10;92.70;;;;;;4954760;28;20189;-71
2023/09/19 10:57:24;;;;;;;2.03;0.75;;;23.10;92.80;;;;;;4950533;29;20221;-71
2023/09/19 11:03:23;;;;;;;1.27;1.17;;;23.10;93.10;;;;;;4958976;28;20235;-72
2023/09/19 11:06:18;;;;;;;0.93;0.70;;;23.10;92.70;;;;;;4976134;28;20182;-71
2023/09/19 11:11:55;;;;;;;1.60;0.77;;;23.10;92.90;;;;;;4954769;28;20284;-72
2023/09/19 11:14:27;;;;;;;1.85;0.88;;;23.10;93.20;;;;;;4975135;28;20670;-71
2023/09/19 11:17:13;;;;;;;0.95;0.88;;;23.00;92.70;;;;;;4957639;28;20213;-72
2023/09/19 11:20:24;;;;;;;1.10;1.00;;;23.00;92.20;;;;;;4961419;28;20324;-72
2023/09/19 11:23:17;;;;;;;0.98;0.88;;;23.10;92.40;;;;;;4960799;28;20188;-70
2023/09/19 11:25:50;;;;;;;1.00;1.00;;;23.10;92.60;;;;;;4955588;28;20206;-72
2023/09/19 11:28:25;;;;;;;1.15;0.90;;;23.00;92.40;;;;;;4985297;28;20291;-71
2023/09/19 11:30:55;;;;;;;1.30;1.00;;;23.10;92.50;;;;;;4961614;28;20223;-72
2023/09/19 11:33:33;;;;;;;0.85;0.73;;;23.00;92.30;;;;;;4961947;28;20673;-71
2023/09/19 11:36:24;;;;;;;0.65;0.60;;;23.10;92.20;;;;;;4953861;28;20277;-71
2023/09/19 11:38:50;;;;;;;0.98;0.95;;;23.10;92.10;;;;;;4956712;28;20281;-71
2023/09/19 11:41:22;;;;;;;1.00;0.90;;;23.10;92.20;;;;;;4967592;28;20283;-71
2023/09/19 11:44:17;;;;;;;1.42;0.98;;;23.10;92.30;;;;;;4949509;28;20221;-71
2023/09/19 11:46:54;;;;;;;0.70;0.70;;;23.10;92.10;;;;;;4975793;28;20221;-72
2023/09/19 11:49:32;;;;;;;0.98;0.98;;;23.10;92.10;;;;;;4957544;28;20190;-71
2023/09/19 11:52:01;;;;;;;1.10;1.00;;;23.10;92.10;;;;;;4973913;28;20188;-71
2023/09/19 11:54:31;;;;;;;0.98;0.90;;;23.10;91.70;;;;;;4960915;28;20192;-71
2023/09/19 11:56:59;;;;;;;1.00;0.90;;;23.10;92.00;;;;;;4946187;29;20214;-72
2023/09/19 11:59:29;;;;;;;1.15;1.05;;;23.10;91.90;;;;;;4941415;28;20201;-71
2023/09/19 12:02:05;;;;;;;0.75;0.75;;;23.10;91.90;;;;;;4962152;28;20198;-72
2023/09/19 12:04:37;;;;;;;1.80;1.02;;;23.10;92.00;;;;;;4950109;28;20299;-72
2023/09/19 12:07:24;;;;;;;0.80;0.80;;;23.10;91.90;;;;;;4954110;28;20241;-71
2023/09/19 12:10:11;;;;;;;1.10;1.00;;;23.10;91.80;;;;;;4967852;28;20192;-71
2023/09/19 12:12:37;;;;;;;1.25;1.15;;;23.10;91.80;;;;;;4971270;28;20184;-72
2023/09/19 12:15:03;;;;;;;1.15;1.08;;;23.10;91.70;;;;;;4960605;28;20200;-71
2023/09/19 12:17:42;;;;;;;1.10;0.93;;;23.10;91.80;;;;;;4955156;28;20256;-71
2023/09/19 12:20:16;;;;;;;1.00;1.00;;;23.10;91.80;;;;;;4957998;28;20199;-71
2023/09/19 12:22:47;;;;;;;1.40;1.10;;;23.10;91.70;;;;;;4945425;28;20192;-72
2023/09/19 12:25:15;;;;;;;0.77;0.77;;;23.10;91.70;;;;;;4955438;28;20190;-69
2023/09/19 12:27:43;;;;;;;1.30;0.90;;;23.10;91.60;;;;;;4958713;28;20209;-72
2023/09/19 12:30:14;;;;;;;1.08;1.00;;;23.10;91.80;;;;;;4941020;28;20185;-71
2023/09/19 12:32:41;;;;;;;0.95;0.95;;;23.10;91.70;;;;;;4955061;28;20194;-71
2023/09/19 12:35:11;;;;;;;0.80;0.80;;;23.10;91.80;;;;;;4942933;28;20178;-72
2023/09/19 12:37:52;;;;;;;1.05;1.00;;;23.10;91.80;;;;;;4953104;28;20209;-74
2023/09/19 12:40:27;;;;;;;1.05;0.95;;;23.10;91.70;;;;;;4961103;28;20187;-71
2023/09/19 12:42:55;;;;;;;1.30;1.02;;;23.10;91.60;;;;;;4959438;28;20196;-73
2023/09/19 12:45:21;;;;;;;1.65;1.02;;;23.10;91.50;;;;;;4944651;28;20625;-72
2023/09/19 12:48:29;;;;;;;1.50;1.10;;;23.10;91.10;;;;;;4944919;28;20272;-71
2023/09/19 12:51:09;;;;;;;0.90;0.90;;;23.10;91.30;;;;;;4959897;28;20189;-71
2023/09/19 12:53:42;;;;;;;0.93;0.90;;;23.10;91.20;;;;;;4957617;28;20200;-72
2023/09/19 12:56:17;;;;;;;1.00;0.90;;;23.10;90.90;;;;;;4981658;28;20193;-71
2023/09/19 12:58:53;;;;;;;1.35;1.20;;;23.10;91.40;;;;;;4962201;28;20690;-71
2023/09/19 13:01:20;;;;;;;1.10;1.00;;;23.10;91.30;;;;;;4948773;28;20211;-71
2023/09/19 13:03:45;;;;;;;3.10;1.05;;;23.10;91.60;;;;;;4977573;28;20218;-71
2023/09/19 13:06:12;;;;;;;1.15;1.08;;;23.10;91.60;;;;;;4947311;28;20254;-71
2023/09/19 13:08:41;;;;;;;0.88;0.80;;;23.10;91.40;;;;;;4951238;28;20624;-72
2023/09/19 13:11:17;;;;;;;0.95;0.95;;;23.10;91.30;;;;;;4955947;28;20189;-71
2023/09/19 13:14:13;;;;;;;1.45;0.93;;;23.10;91.40;;;;;;4950098;28;20679;-71
2023/09/19 13:17:16;;;;;;;1.50;0.90;;;23.10;91.00;;;;;;4960180;28;20210;-71
2023/09/19 13:19:57;;;;;;;3.80;1.00;;;23.10;91.30;;;;;;4948618;28;20199;-71